createdAt,value
2022-09-09T00:00:14.802Z,58.55
2022-09-09T00:02:46.635Z,58.40
2022-09-09T00:05:45.948Z,59.40
2022-09-09T00:08:23.910Z,59.70
2022-09-09T00:11:00.060Z,59.23
2022-09-09T00:13:34.534Z,60.02
2022-09-09T00:16:07.518Z,59.50
2022-09-09T00:18:56.621Z,59.86
2022-09-09T00:22:05.464Z,60.23
2022-09-09T00:24:56.665Z,59.59
2022-09-09T00:27:43.857Z,59.33
2022-09-09T00:30:26.638Z,58.65
2022-09-09T00:33:03.526Z,58.96
2022-09-09T00:35:38.064Z,58.93
2022-09-09T00:38:14.668Z,59.30
2022-09-09T00:41:10.600Z,59.62
2022-09-09T00:43:39.777Z,58.79
2022-09-09T00:46:34.138Z,58.64
2022-09-09T00:49:16.713Z,59.08
2022-09-09T00:51:52.607Z,60.29
2022-09-09T00:54:40.338Z,59.62
2022-09-09T00:57:19.224Z,60.05
2022-09-09T00:59:53.449Z,60.77
2022-09-09T01:02:29.361Z,60.14
2022-09-09T01:05:02.824Z,59.43
2022-09-09T01:07:29.605Z,58.58
2022-09-09T01:10:03.538Z,58.47
2022-09-09T01:12:43.530Z,58.32
2022-09-09T01:15:23.711Z,58.20
2022-09-09T01:18:18.220Z,58.22
2022-09-09T01:20:56.741Z,59.79
2022-09-09T01:23:29.325Z,59.85
2022-09-09T01:26:13.883Z,59.48
2022-09-09T01:28:41.929Z,59.09
2022-09-09T01:31:12.745Z,58.79
2022-09-09T01:33:39.469Z,58.98
2022-09-09T01:36:13.240Z,59.27
2022-09-09T01:38:40.904Z,58.94
2022-09-09T01:41:07.606Z,58.56
2022-09-09T01:43:34.425Z,58.37
2022-09-09T01:46:02.639Z,58.98
2022-09-09T01:48:29.985Z,58.88
2022-09-09T01:50:56.971Z,58.73
2022-09-09T01:53:23.992Z,58.62
2022-09-09T01:55:58.228Z,58.18
2022-09-09T01:58:40.209Z,58.20
2022-09-09T02:01:24.371Z,58.38
2022-09-09T02:03:57.257Z,59.14
2022-09-09T02:06:35.941Z,59.19
2022-09-09T02:09:06.160Z,59.01
2022-09-09T02:11:34.312Z,59.46
2022-09-09T02:14:06.460Z,58.82
2022-09-09T02:16:42.693Z,59.02
2022-09-09T02:19:15.447Z,58.77
2022-09-09T02:21:46.137Z,58.73
2022-09-09T02:24:19.919Z,58.30
2022-09-09T02:26:50.904Z,58.49
2022-09-09T02:29:25.689Z,58.92
2022-09-09T02:31:56.172Z,58.92
2022-09-09T02:34:25.497Z,58.86
2022-09-09T02:36:55.186Z,59.32
2022-09-09T02:39:22.203Z,59.20
2022-09-09T02:41:50.085Z,59.59
2022-09-09T02:44:19.442Z,60.36
2022-09-09T02:47:23.404Z,59.51
2022-09-09T02:50:14.317Z,59.69
2022-09-09T02:53:16.093Z,61.04
2022-09-09T02:56:05.244Z,60.63
2022-09-09T02:58:32.785Z,60.41
2022-09-09T03:01:02.230Z,60.21
2022-09-09T03:03:28.935Z,59.92
2022-09-09T03:05:55.628Z,59.54
2022-09-09T03:08:22.575Z,59.45
2022-09-09T03:10:49.400Z,59.48
2022-09-09T03:13:16.466Z,59.26
2022-09-09T03:15:43.613Z,59.17
2022-09-09T03:21:03.386Z,59.85
2022-09-09T03:23:30.404Z,60.97
2022-09-09T03:25:59.603Z,60.32
2022-09-09T03:28:32.393Z,60.72
2022-09-09T03:31:04.316Z,59.90
2022-09-09T03:33:35.484Z,59.90
2022-09-09T03:36:07.760Z,59.56
2022-09-09T03:38:34.741Z,59.35
2022-09-09T03:41:05.665Z,59.89
2022-09-09T03:43:32.527Z,60.43
2022-09-09T03:45:59.251Z,60.05
2022-09-09T03:48:28.093Z,60.19
2022-09-09T03:50:55.408Z,59.77
2022-09-09T03:53:25.828Z,60.55
2022-09-09T03:56:01.108Z,61.79
2022-09-09T03:58:28.679Z,61.62
2022-09-09T04:00:56.624Z,60.65
2022-09-09T04:03:28.109Z,60.79
2022-09-09T04:05:56.634Z,61.03
2022-09-09T04:08:26.442Z,60.41
2022-09-09T04:10:54.164Z,60.14
2022-09-09T04:13:20.951Z,60.44
2022-09-09T04:15:59.494Z,60.64
2022-09-09T04:18:27.301Z,60.49
2022-09-09T04:20:54.560Z,60.06
2022-09-09T04:23:21.732Z,60.15
2022-09-09T04:25:50.598Z,60.31
2022-09-09T04:28:18.713Z,60.48
2022-09-09T04:30:46.316Z,60.12
2022-09-09T04:33:14.467Z,60.21
2022-09-09T04:35:45.847Z,59.96
2022-09-09T04:38:12.544Z,60.12
2022-09-09T04:40:43.364Z,60.43
2022-09-09T04:43:14.324Z,60.60
2022-09-09T04:45:42.496Z,60.36
2022-09-09T04:48:13.018Z,60.22
2022-09-09T04:50:39.960Z,60.11
2022-09-09T04:53:07.272Z,60.01
2022-09-09T04:55:34.831Z,60.13
2022-09-09T04:58:09.131Z,60.04
2022-09-09T05:00:39.073Z,60.24
2022-09-09T05:03:06.757Z,59.70
2022-09-09T05:05:37.259Z,59.96
2022-09-09T05:08:09.536Z,60.11
2022-09-09T05:10:39.342Z,59.09
2022-09-09T05:13:07.681Z,58.93
2022-09-09T05:15:34.837Z,59.37
2022-09-09T05:18:04.762Z,58.98
2022-09-09T05:20:31.632Z,58.90
2022-09-09T05:22:58.398Z,59.22
2022-09-09T05:25:27.118Z,58.73
2022-09-09T05:27:54.785Z,59.64
2022-09-09T05:30:23.749Z,59.14
2022-09-09T05:32:50.415Z,58.57
2022-09-09T05:35:19.044Z,59.56
2022-09-09T05:37:47.151Z,59.14
2022-09-09T05:40:13.976Z,58.41
2022-09-09T05:42:40.831Z,58.54
2022-09-09T05:45:09.004Z,60.15
2022-09-09T05:47:38.322Z,59.57
2022-09-09T05:50:05.593Z,59.05
2022-09-09T05:52:32.954Z,58.62
2022-09-09T05:55:00.315Z,59.02
2022-09-09T05:57:26.965Z,59.87
2022-09-09T05:59:54.719Z,59.49
2022-09-09T06:02:21.667Z,58.38
2022-09-09T06:04:48.654Z,58.88
2022-09-09T06:07:15.673Z,59.00
2022-09-09T06:09:45.136Z,58.19
2022-09-09T06:12:12.069Z,57.49
2022-09-09T06:14:40.342Z,56.73
2022-09-09T06:17:10.079Z,55.90
2022-09-09T06:19:36.793Z,56.38
2022-09-09T06:22:03.446Z,54.96
2022-09-09T06:24:31.288Z,54.26
2022-09-09T06:26:58.471Z,53.59
2022-09-09T06:29:25.107Z,54.18
2022-09-09T06:31:51.866Z,53.88
2022-09-09T06:34:19.227Z,54.45
2022-09-09T06:36:46.930Z,54.21
2022-09-09T06:39:15.120Z,53.90
2022-09-09T06:41:43.765Z,54.15
2022-09-09T06:44:12.873Z,54.14
2022-09-09T06:46:40.864Z,54.27
2022-09-09T06:49:09.567Z,53.83
2022-09-09T06:51:37.738Z,54.57
2022-09-09T06:54:05.382Z,54.67
2022-09-09T06:56:42.964Z,54.69
2022-09-09T06:59:10.355Z,52.47
2022-09-09T07:01:42.230Z,52.33
2022-09-09T07:04:10.130Z,51.78
2022-09-09T07:06:40.824Z,53.08
2022-09-09T07:09:09.994Z,51.87
2022-09-09T07:11:54.949Z,52.37
2022-09-09T07:14:22.981Z,52.10
2022-09-09T07:16:49.673Z,51.79
2022-09-09T07:19:16.853Z,52.02
2022-09-09T07:21:44.247Z,51.24
2022-09-09T07:24:13.627Z,51.19
2022-09-09T07:26:41.124Z,51.27
2022-09-09T07:29:10.983Z,50.43
2022-09-09T07:31:41.228Z,50.74
2022-09-09T07:34:08.343Z,50.90
2022-09-09T07:36:37.459Z,50.01
2022-09-09T07:39:07.616Z,49.77
2022-09-09T07:41:44.097Z,50.18
2022-09-09T07:44:13.825Z,50.04
2022-09-09T07:46:42.234Z,49.60
2022-09-09T07:49:09.925Z,48.25
2022-09-09T07:51:39.936Z,51.51
2022-09-09T07:54:11.756Z,49.00
2022-09-09T07:56:41.606Z,49.47
2022-09-09T07:59:10.581Z,49.08
2022-09-09T08:01:40.633Z,47.67
2022-09-09T08:04:29.140Z,47.42
2022-09-09T08:07:01.179Z,47.14
2022-09-09T08:09:30.016Z,47.25
2022-09-09T08:11:57.878Z,46.54
2022-09-09T08:14:25.455Z,45.99
2022-09-09T08:16:55.278Z,46.73
2022-09-09T08:19:22.131Z,47.50
2022-09-09T08:21:54.044Z,47.51
2022-09-09T08:24:24.778Z,45.42
2022-09-09T08:26:51.763Z,46.90
2022-09-09T08:29:19.258Z,45.57
2022-09-09T08:31:55.416Z,45.94
2022-09-09T08:34:23.034Z,46.29
2022-09-09T08:36:51.315Z,45.67
2022-09-09T08:39:20.097Z,44.93
2022-09-09T08:42:20.577Z,45.43
2022-09-09T08:44:55.998Z,44.51
2022-09-09T08:47:50.699Z,43.64
2022-09-09T08:50:33.539Z,44.72
2022-09-09T08:53:09.314Z,44.96
2022-09-09T08:55:39.836Z,45.60
2022-09-09T08:58:21.280Z,44.62
2022-09-09T09:01:12.843Z,45.91
2022-09-09T09:04:15.251Z,45.07
2022-09-09T09:06:47.377Z,45.54
2022-09-09T09:09:32.137Z,44.78
2022-09-09T09:12:02.662Z,44.35
2022-09-09T09:14:31.710Z,43.26
2022-09-09T09:17:10.774Z,43.93
2022-09-09T09:19:41.898Z,43.75
2022-09-09T09:22:26.541Z,43.23
2022-09-09T09:24:57.765Z,43.31
2022-09-09T09:27:50.634Z,43.02
2022-09-09T09:30:30.317Z,43.53
2022-09-09T09:33:27.767Z,42.93
2022-09-09T09:35:54.917Z,42.98
2022-09-09T09:41:12.081Z,42.75
2022-09-09T09:43:44.098Z,42.83
2022-09-09T09:46:25.355Z,41.84
2022-09-09T09:49:03.876Z,41.56
2022-09-09T09:51:35.410Z,42.62
2022-09-09T09:54:14.458Z,42.36
2022-09-09T09:56:42.828Z,41.71
2022-09-09T09:59:23.829Z,44.55
2022-09-09T10:02:18.783Z,42.31
2022-09-09T10:04:46.809Z,43.54
2022-09-09T10:07:19.550Z,40.67
2022-09-09T10:09:48.525Z,39.63
2022-09-09T10:12:45.206Z,42.27
2022-09-09T10:15:34.072Z,42.06
2022-09-09T10:18:06.880Z,44.27
2022-09-09T10:20:52.257Z,43.21
2022-09-09T10:23:44.945Z,41.99
2022-09-09T10:26:20.756Z,41.40
2022-09-09T10:28:53.893Z,41.30
2022-09-09T10:31:36.373Z,40.84
2022-09-09T10:34:31.053Z,41.86
2022-09-09T10:36:59.481Z,41.78
2022-09-09T10:39:26.056Z,41.49
2022-09-09T10:42:13.531Z,41.94
2022-09-09T10:45:03.882Z,42.51
2022-09-09T10:47:51.380Z,43.13
2022-09-09T10:50:59.897Z,42.51
2022-09-09T10:54:12.883Z,42.89
2022-09-09T10:56:41.373Z,43.37
2022-09-09T10:59:23.700Z,43.12
2022-09-09T11:01:57.128Z,43.93
2022-09-09T11:04:33.348Z,44.14
2022-09-09T11:07:09.714Z,44.78
2022-09-09T11:09:46.435Z,45.68
2022-09-09T11:12:20.024Z,45.82
2022-09-09T11:14:58.770Z,45.45
2022-09-09T11:17:55.657Z,45.91
2022-09-09T11:20:22.753Z,45.11
2022-09-09T11:22:59.158Z,45.95
2022-09-09T11:25:40.764Z,45.62
2022-09-09T11:28:29.967Z,46.49
2022-09-09T11:31:17.548Z,46.65
2022-09-09T11:34:22.613Z,47.35
2022-09-09T11:37:06.235Z,46.40
2022-09-09T11:39:45.480Z,46.79
2022-09-09T11:42:15.251Z,46.61
2022-09-09T11:44:43.019Z,46.76
2022-09-09T11:47:31.199Z,45.94
2022-09-09T11:50:28.069Z,45.60
2022-09-09T11:53:13.927Z,44.49
2022-09-09T11:55:41.306Z,44.22
2022-09-09T11:58:12.022Z,43.23
2022-09-09T12:00:46.444Z,43.72
2022-09-09T12:03:47.996Z,44.64
2022-09-09T12:06:29.589Z,44.03
2022-09-09T12:09:12.079Z,44.80
2022-09-09T12:11:38.786Z,45.24
2022-09-09T12:14:05.973Z,44.45
2022-09-09T12:16:36.321Z,44.38
2022-09-09T12:19:07.592Z,43.85
2022-09-09T12:21:48.801Z,41.91
2022-09-09T12:24:28.072Z,44.80
2022-09-09T12:27:03.854Z,44.92
2022-09-09T12:29:49.063Z,43.88
2022-09-09T12:32:26.401Z,43.36
2022-09-09T12:35:04.324Z,43.78
2022-09-09T12:37:45.461Z,44.49
2022-09-09T12:40:20.999Z,43.82
2022-09-09T12:42:47.940Z,42.95
2022-09-09T12:45:19.081Z,42.06
2022-09-09T12:47:46.979Z,40.83
2022-09-09T12:50:35.558Z,40.98
2022-09-09T12:53:17.059Z,41.81
2022-09-09T12:55:54.942Z,42.63
2022-09-09T12:58:22.058Z,42.13
2022-09-09T13:00:57.392Z,42.74
2022-09-09T13:03:25.911Z,43.73
2022-09-09T13:05:54.377Z,43.96
2022-09-09T13:08:26.041Z,42.90
2022-09-09T13:11:06.809Z,43.91
2022-09-09T13:13:47.281Z,45.83
2022-09-09T13:16:34.278Z,45.86
2022-09-09T13:19:20.137Z,46.32
2022-09-09T13:21:46.778Z,45.46
2022-09-09T13:24:33.622Z,44.11
2022-09-09T13:27:25.391Z,42.94
2022-09-09T13:29:58.129Z,43.58
2022-09-09T13:32:28.032Z,44.57
2022-09-09T13:35:05.011Z,44.50
2022-09-09T13:37:39.110Z,44.96
2022-09-09T13:40:11.075Z,44.40
2022-09-09T13:42:43.638Z,45.03
2022-09-09T13:45:21.647Z,44.08
2022-09-09T13:47:53.241Z,43.20
2022-09-09T13:50:23.591Z,43.25
2022-09-09T13:52:54.278Z,43.22
2022-09-09T13:55:23.841Z,43.33
2022-09-09T13:57:59.370Z,42.59
2022-09-09T14:00:34.645Z,43.13
2022-09-09T14:03:04.968Z,45.71
2022-09-09T14:05:33.806Z,43.67
2022-09-09T14:08:04.290Z,42.74
2022-09-09T14:10:31.006Z,42.65
2022-09-09T14:12:58.130Z,41.63
2022-09-09T14:15:25.001Z,42.59
2022-09-09T14:17:53.280Z,44.13
2022-09-09T14:20:20.359Z,43.49
2022-09-09T14:22:49.815Z,42.83
2022-09-09T14:25:16.808Z,44.06
2022-09-09T14:27:43.519Z,42.50
2022-09-09T14:30:10.904Z,43.30
2022-09-09T14:32:37.581Z,42.55
2022-09-09T14:35:04.938Z,43.68
2022-09-09T14:37:32.309Z,43.78
2022-09-09T14:40:04.624Z,43.22
2022-09-09T14:42:31.358Z,43.54
2022-09-09T14:44:58.215Z,43.41
2022-09-09T14:47:25.055Z,42.79
2022-09-09T14:49:51.641Z,44.14
2022-09-09T14:52:20.402Z,45.50
2022-09-09T14:54:47.404Z,45.45
2022-09-09T14:57:14.085Z,44.00
2022-09-09T14:59:41.087Z,45.06
2022-09-09T15:02:10.372Z,44.85
2022-09-09T15:04:37.185Z,44.67
2022-09-09T15:07:04.332Z,44.74
2022-09-09T15:09:31.069Z,45.68
2022-09-09T15:12:02.226Z,43.96
2022-09-09T15:14:28.851Z,44.48
2022-09-09T15:16:55.431Z,44.98
2022-09-09T15:19:22.058Z,44.34
2022-09-09T15:21:48.822Z,44.10
2022-09-09T15:24:15.667Z,44.55
2022-09-09T15:26:42.291Z,42.41
2022-09-09T15:29:09.788Z,42.47
2022-09-09T15:31:37.408Z,43.64
2022-09-09T15:34:10.502Z,43.55
2022-09-09T15:36:43.842Z,43.14
2022-09-09T15:39:16.907Z,42.21
2022-09-09T15:41:44.835Z,42.55
2022-09-09T15:44:14.943Z,43.66
2022-09-09T15:46:46.881Z,44.39
2022-09-09T15:49:19.415Z,44.41
2022-09-09T15:51:59.989Z,43.65
2022-09-09T15:54:27.244Z,45.18
2022-09-09T15:56:58.646Z,44.94
2022-09-09T15:59:26.995Z,44.67
2022-09-09T16:01:54.632Z,44.83
2022-09-09T16:04:25.995Z,45.16
2022-09-09T16:06:55.645Z,45.52
2022-09-09T16:09:22.913Z,45.70
2022-09-09T16:11:49.953Z,46.80
2022-09-09T16:14:16.932Z,46.54
2022-09-09T16:16:43.919Z,46.61
2022-09-09T16:19:13.609Z,47.33
2022-09-09T16:21:45.821Z,47.30
2022-09-09T16:24:15.191Z,46.28
2022-09-09T16:26:46.888Z,46.77
2022-09-09T16:29:15.408Z,47.42
2022-09-09T16:31:43.012Z,47.06
2022-09-09T16:34:10.567Z,47.12
2022-09-09T16:36:40.178Z,47.14
2022-09-09T16:39:13.305Z,47.41
2022-09-09T16:41:41.495Z,47.10
2022-09-09T16:44:10.747Z,47.72
2022-09-09T16:46:40.631Z,47.76
2022-09-09T16:49:11.037Z,47.87
2022-09-09T16:51:41.272Z,47.83
2022-09-09T16:54:09.832Z,47.86
2022-09-09T16:56:39.067Z,47.38
2022-09-09T16:59:09.551Z,47.63
2022-09-09T17:01:38.692Z,47.50
2022-09-09T17:04:08.577Z,47.90
2022-09-09T17:06:36.144Z,47.77
2022-09-09T17:09:06.226Z,47.88
2022-09-09T17:11:33.148Z,47.94
2022-09-09T17:14:01.316Z,48.26
2022-09-09T17:16:31.060Z,48.54
2022-09-09T17:19:04.437Z,48.28
2022-09-09T17:21:32.210Z,48.52
2022-09-09T17:23:59.814Z,48.39
2022-09-09T17:26:29.513Z,48.46
2022-09-09T17:28:59.864Z,48.20
2022-09-09T17:31:27.615Z,47.99
2022-09-09T17:33:54.935Z,48.49
2022-09-09T17:36:31.664Z,47.89
2022-09-09T17:39:00.897Z,48.45
2022-09-09T17:41:36.489Z,49.21
2022-09-09T17:44:04.983Z,49.23
2022-09-09T17:46:36.112Z,49.48
2022-09-09T17:49:09.843Z,49.40
2022-09-09T17:51:37.321Z,49.18
2022-09-09T17:54:10.328Z,49.79
2022-09-09T17:56:38.480Z,49.66
2022-09-09T17:59:07.819Z,49.76
2022-09-09T18:01:39.869Z,49.92
2022-09-09T18:04:09.213Z,50.61
2022-09-09T18:06:39.163Z,50.36
2022-09-09T18:09:13.261Z,50.05
2022-09-09T18:11:43.937Z,50.41
2022-09-09T18:14:13.826Z,50.23
2022-09-09T18:16:40.956Z,49.97
2022-09-09T18:19:10.394Z,49.65
2022-09-09T18:21:37.132Z,50.28
2022-09-09T18:24:06.083Z,50.22
2022-09-09T18:26:34.101Z,50.11
2022-09-09T18:29:06.179Z,50.13
2022-09-09T18:31:33.257Z,51.17
2022-09-09T18:34:03.247Z,52.75
2022-09-09T18:36:36.516Z,53.02
2022-09-09T18:39:05.621Z,52.39
2022-09-09T18:41:37.906Z,52.19
2022-09-09T18:44:11.575Z,55.47
2022-09-09T18:46:39.949Z,55.27
2022-09-09T18:49:07.037Z,54.71
2022-09-09T18:51:35.479Z,52.91
2022-09-09T18:54:23.135Z,52.50
2022-09-09T18:56:50.593Z,52.35
2022-09-09T18:59:20.502Z,51.83
2022-09-09T19:01:50.851Z,52.33
2022-09-09T19:04:18.491Z,52.28
2022-09-09T19:06:49.591Z,51.67
2022-09-09T19:09:18.646Z,51.72
2022-09-09T19:11:46.189Z,51.60
2022-09-09T19:14:15.483Z,51.87
2022-09-09T19:16:42.936Z,51.68
2022-09-09T19:19:24.764Z,51.63
2022-09-09T19:21:57.493Z,51.74
2022-09-09T19:24:30.346Z,51.79
2022-09-09T19:27:02.961Z,51.35
2022-09-09T19:29:32.517Z,51.35
2022-09-09T19:34:48.913Z,51.14
2022-09-09T19:37:18.500Z,51.05
2022-09-09T19:39:46.725Z,50.98
2022-09-09T19:42:13.554Z,50.86
2022-09-09T19:44:40.268Z,51.58
2022-09-09T19:47:07.443Z,51.47
2022-09-09T19:49:35.300Z,51.28
2022-09-09T19:52:02.499Z,52.06
2022-09-09T19:54:29.248Z,52.26
2022-09-09T19:56:55.937Z,52.15
2022-09-09T19:59:22.800Z,52.68
2022-09-09T20:01:50.483Z,52.74
2022-09-09T20:04:17.961Z,52.53
2022-09-09T20:06:44.624Z,52.37
2022-09-09T20:09:15.119Z,51.85
2022-09-09T20:11:43.402Z,52.35
2022-09-09T20:14:11.725Z,52.85
2022-09-09T20:16:39.324Z,52.90
2022-09-09T20:19:07.856Z,52.71
2022-09-09T20:21:38.342Z,53.18
2022-09-09T20:24:07.656Z,53.32
2022-09-09T20:26:37.645Z,53.49
2022-09-09T20:29:07.756Z,53.25
2022-09-09T20:31:37.085Z,53.06
2022-09-09T20:34:06.161Z,53.39
2022-09-09T20:36:35.520Z,53.51
2022-09-09T20:39:07.393Z,53.95
2022-09-09T20:41:35.592Z,53.66
2022-09-09T20:44:05.985Z,54.66
2022-09-09T20:46:36.531Z,54.94
2022-09-09T20:49:06.664Z,54.66
2022-09-09T20:51:34.715Z,54.80
2022-09-09T20:54:05.591Z,54.73
2022-09-09T20:56:34.712Z,54.63
2022-09-09T20:59:02.132Z,55.04
2022-09-09T21:01:28.811Z,54.62
2022-09-09T21:03:55.662Z,54.71
2022-09-09T21:06:22.923Z,54.50
2022-09-09T21:08:50.891Z,54.70
2022-09-09T21:11:17.934Z,54.70
2022-09-09T21:13:44.745Z,55.39
2022-09-09T21:16:19.520Z,55.86
2022-09-09T21:18:46.844Z,55.18
2022-09-09T21:21:15.011Z,55.59
2022-09-09T21:23:42.200Z,55.53
2022-09-09T21:26:09.972Z,55.95
2022-09-09T21:28:37.156Z,55.72
2022-09-09T21:31:05.764Z,55.73
2022-09-09T21:33:34.633Z,56.02
2022-09-09T21:36:06.050Z,56.19
2022-09-09T21:38:33.407Z,56.07
2022-09-09T21:41:08.658Z,55.96
2022-09-09T21:43:35.787Z,56.24
2022-09-09T21:46:10.347Z,56.80
2022-09-09T21:48:37.254Z,56.31
2022-09-09T21:51:06.520Z,56.40
2022-09-09T21:53:33.646Z,56.65
2022-09-09T21:56:09.176Z,57.81
2022-09-09T21:58:36.321Z,57.43
2022-09-09T22:01:09.904Z,56.98
2022-09-09T22:03:42.543Z,56.72
2022-09-09T22:06:11.838Z,56.10
2022-09-09T22:08:38.664Z,56.06
2022-09-09T22:11:08.036Z,56.19
2022-09-09T22:13:35.351Z,56.48
2022-09-09T22:16:04.210Z,56.74
2022-09-09T22:18:34.794Z,56.80
2022-09-09T22:21:14.325Z,56.99
2022-09-09T22:23:41.138Z,57.78
2022-09-09T22:26:08.186Z,57.45
2022-09-09T22:28:35.971Z,57.91
2022-09-09T22:31:02.722Z,57.05
2022-09-09T22:33:29.645Z,57.18
2022-09-09T22:35:56.653Z,57.41
2022-09-09T22:38:23.296Z,56.87
2022-09-09T22:40:50.025Z,57.35
2022-09-09T22:43:19.885Z,57.36
2022-09-09T22:45:46.530Z,57.78
2022-09-09T22:48:14.733Z,57.54
2022-09-09T22:50:42.633Z,57.19
2022-09-09T22:53:13.535Z,59.20
2022-09-09T22:55:41.178Z,58.19
2022-09-09T22:58:08.110Z,58.40
2022-09-09T23:00:35.277Z,58.16
2022-09-09T23:03:02.220Z,58.71
2022-09-09T23:05:30.711Z,58.46
2022-09-09T23:07:58.571Z,58.02
2022-09-09T23:10:27.170Z,58.36
2022-09-09T23:12:54.169Z,58.65
2022-09-09T23:15:20.947Z,58.38
2022-09-09T23:17:47.553Z,58.04
2022-09-09T23:20:14.314Z,58.09
2022-09-09T23:22:41.121Z,57.43
2022-09-09T23:25:08.140Z,57.46
2022-09-09T23:27:37.347Z,57.26
2022-09-09T23:30:07.145Z,57.23
2022-09-09T23:32:33.845Z,57.59
2022-09-09T23:35:01.000Z,57.50
2022-09-09T23:37:27.627Z,57.21
2022-09-09T23:39:54.684Z,57.49
2022-09-09T23:42:21.348Z,57.41
2022-09-09T23:44:48.342Z,57.82
2022-09-09T23:47:14.973Z,57.52
2022-09-09T23:49:41.583Z,57.52
2022-09-09T23:52:08.903Z,58.51
2022-09-09T23:54:35.866Z,58.38
2022-09-09T23:57:03.974Z,57.72
2022-09-09T23:59:31.628Z,57.62
